Time;durP1;ratioP1;P1;durP2;ratioP2;P2;SDS_P1;SDS_P2;PMS_P1;PMS_P2;Temp;Humidity;BMP_temperature;BMP_pressure;BME280_temperature;BME280_humidity;BME280_pressure;Samples;Min_cycle;Max_cycle;Signal;HPM_P1;HPM_P2
2022/02/19 00:02:02;;;;;;;2.03;0.40;;;8.50;64.60;;;;;;5013402;28;20037;-66
2022/02/19 00:04:28;;;;;;;1.55;0.40;;;8.50;64.60;;;;;;5010663;28;20568;-67
2022/02/19 00:06:53;;;;;;;2.97;0.40;;;8.50;64.90;;;;;;5013845;28;20128;-66
2022/02/19 00:09:19;;;;;;;1.50;0.40;;;8.50;65.00;;;;;;5011295;28;20105;-65
2022/02/19 00:11:45;;;;;;;1.83;0.30;;;8.50;64.90;;;;;;5012503;28;20095;-66
2022/02/19 00:14:11;;;;;;;3.15;0.30;;;8.50;65.00;;;;;;5014031;28;20034;-67
2022/02/19 00:16:37;;;;;;;2.80;0.40;;;8.50;64.90;;;;;;5008955;28;20042;-66
2022/02/19 00:19:03;;;;;;;1.80;0.35;;;8.50;65.00;;;;;;5011657;28;20095;-66
2022/02/19 00:21:29;;;;;;;1.30;0.40;;;8.50;65.10;;;;;;5011242;28;20045;-65
2022/02/19 00:23:54;;;;;;;1.80;0.35;;;8.50;65.10;;;;;;5012161;28;20116;-65
2022/02/19 00:26:20;;;;;;;2.42;0.40;;;8.40;65.00;;;;;;5010710;28;20392;-66
2022/02/19 00:28:46;;;;;;;3.03;0.55;;;8.50;65.00;;;;;;5009912;28;20121;-65
2022/02/19 00:31:11;;;;;;;4.63;0.40;;;8.50;65.00;;;;;;5012271;28;20060;-66
2022/02/19 00:33:37;;;;;;;1.20;0.30;;;8.50;65.00;;;;;;5010517;28;20500;-67
2022/02/19 00:36:03;;;;;;;1.35;0.40;;;8.50;65.00;;;;;;5010068;28;20179;-65
2022/02/19 00:38:28;;;;;;;1.80;0.40;;;8.50;65.00;;;;;;5012267;28;20390;-67
2022/02/19 00:40:54;;;;;;;2.65;0.30;;;8.40;65.00;;;;;;5010861;28;20034;-67
2022/02/19 00:43:20;;;;;;;2.20;0.25;;;8.50;65.00;;;;;;5010380;28;20709;-66
2022/02/19 00:45:45;;;;;;;2.15;0.43;;;8.40;65.00;;;;;;5007886;28;20042;-67
2022/02/19 00:48:11;;;;;;;0.65;0.15;;;8.40;65.20;;;;;;5011214;28;20054;-66
2022/02/19 00:50:37;;;;;;;2.00;0.30;;;8.40;65.30;;;;;;5009670;28;20073;-66
2022/02/19 00:53:04;;;;;;;3.83;0.30;;;8.40;65.50;;;;;;5012532;28;20069;-67
2022/02/19 00:55:30;;;;;;;1.65;0.30;;;8.40;65.90;;;;;;5008437;28;20060;-66
2022/02/19 00:57:56;;;;;;;1.83;0.28;;;8.30;65.70;;;;;;5011557;28;20034;-66
2022/02/19 01:00:21;;;;;;;2.13;0.30;;;8.30;66.00;;;;;;5010616;28;20087;-66
2022/02/19 01:02:47;;;;;;;1.83;0.30;;;8.30;66.20;;;;;;5008779;28;20042;-66
2022/02/19 01:05:13;;;;;;;1.80;0.30;;;8.30;66.50;;;;;;5010104;28;20665;-67
2022/02/19 01:07:38;;;;;;;0.60;0.10;;;8.30;66.60;;;;;;5012797;28;20128;-66
2022/02/19 01:10:07;;;;;;;1.77;0.30;;;8.30;66.70;;;;;;5015530;28;20040;-66
2022/02/19 01:12:33;;;;;;;1.48;0.28;;;8.20;66.90;;;;;;4997759;28;20600;-66
2022/02/19 01:14:59;;;;;;;1.63;0.40;;;8.20;66.90;;;;;;5000807;28;20061;-67
2022/02/19 01:17:24;;;;;;;1.80;0.30;;;8.20;67.00;;;;;;5005738;28;20068;-66
2022/02/19 01:19:50;;;;;;;1.73;0.40;;;8.20;67.20;;;;;;4995609;28;20402;-66
2022/02/19 01:22:16;;;;;;;2.05;0.30;;;8.20;67.20;;;;;;4995402;28;20031;-69
2022/02/19 01:24:41;;;;;;;2.15;0.55;;;8.20;67.40;;;;;;4993997;28;20088;-67
2022/02/19 01:27:07;;;;;;;2.83;0.30;;;8.20;67.40;;;;;;4996214;28;20044;-66
2022/02/19 01:29:32;;;;;;;2.53;0.47;;;8.20;67.40;;;;;;4995549;28;20026;-66
2022/02/19 01:31:58;;;;;;;0.95;0.25;;;8.10;67.40;;;;;;4995904;28;20058;-67
2022/02/19 01:34:24;;;;;;;1.75;0.50;;;8.20;67.50;;;;;;4993470;28;20042;-65
2022/02/19 01:36:50;;;;;;;2.97;0.90;;;8.20;67.40;;;;;;4994830;28;20030;-66
2022/02/19 01:39:16;;;;;;;6.35;0.60;;;8.20;67.20;;;;;;4995139;28;20034;-67
2022/02/19 01:41:43;;;;;;;3.70;0.65;;;8.10;67.10;;;;;;4994646;28;20080;-66
2022/02/19 01:44:10;;;;;;;2.72;0.70;;;8.20;67.60;;;;;;4995986;28;20035;-66
2022/02/19 01:46:36;;;;;;;2.42;0.60;;;8.10;67.80;;;;;;4994762;28;20108;-67
2022/02/19 01:49:03;;;;;;;2.30;0.40;;;8.10;68.20;;;;;;4995427;28;20046;-66
2022/02/19 01:51:32;;;;;;;4.75;0.70;;;8.10;68.10;;;;;;4993460;28;20046;-67
2022/02/19 01:54:08;;;;;;;3.47;0.80;;;8.00;68.50;;;;;;4993926;28;20113;-66
2022/02/19 01:56:35;;;;;;;2.53;0.63;;;8.00;68.30;;;;;;4993218;28;20088;-67
2022/02/19 01:59:01;;;;;;;3.20;0.70;;;8.00;67.90;;;;;;4995441;28;20153;-66
2022/02/19 02:01:27;;;;;;;2.30;0.60;;;8.00;67.90;;;;;;4999966;28;20041;-66
2022/02/19 02:03:53;;;;;;;2.03;0.57;;;8.00;67.70;;;;;;4994786;28;20045;-66
2022/02/19 02:06:21;;;;;;;2.35;0.52;;;8.00;67.50;;;;;;4996017;28;20049;-66
2022/02/19 02:08:47;;;;;;;2.00;0.38;;;7.90;67.30;;;;;;4989932;28;20030;-66
2022/02/19 02:11:13;;;;;;;1.77;0.45;;;7.90;66.70;;;;;;4986782;28;20390;-66
2022/02/19 02:13:39;;;;;;;4.93;0.57;;;7.90;66.50;;;;;;4998496;28;20038;-67
2022/02/19 02:16:04;;;;;;;2.47;0.57;;;7.80;65.70;;;;;;5011241;28;20048;-67
2022/02/19 02:18:30;;;;;;;2.58;0.50;;;7.90;64.90;;;;;;5009252;28;20575;-67
2022/02/19 02:20:56;;;;;;;3.58;0.65;;;7.80;64.80;;;;;;5008049;28;20034;-66
2022/02/19 02:23:21;;;;;;;3.85;0.50;;;7.80;64.30;;;;;;5011700;28;20048;-66
2022/02/19 02:25:47;;;;;;;2.50;0.50;;;7.80;63.70;;;;;;5009702;28;20042;-67
2022/02/19 02:28:13;;;;;;;4.55;0.77;;;7.80;63.90;;;;;;5010175;28;20049;-67
2022/02/19 02:30:40;;;;;;;4.72;0.60;;;7.80;63.60;;;;;;5008179;28;20119;-66
2022/02/19 02:33:07;;;;;;;5.47;0.55;;;7.80;63.60;;;;;;5009768;28;20065;-67
2022/02/19 02:35:34;;;;;;;4.28;0.60;;;7.80;63.60;;;;;;5009969;28;20034;-65
2022/02/19 02:38:00;;;;;;;2.60;0.45;;;7.80;63.80;;;;;;5009988;28;20038;-66
2022/02/19 02:40:25;;;;;;;2.53;0.47;;;7.80;63.80;;;;;;5010528;28;20584;-66
2022/02/19 02:42:51;;;;;;;3.97;0.70;;;7.80;64.00;;;;;;5012179;28;20767;-67
2022/02/19 02:45:17;;;;;;;3.15;0.52;;;7.80;64.40;;;;;;5011303;28;20433;-66
2022/02/19 02:47:43;;;;;;;2.28;0.63;;;7.80;64.70;;;;;;5006827;28;20525;-66
2022/02/19 02:50:10;;;;;;;3.08;0.52;;;7.80;65.00;;;;;;5010063;28;20125;-66
2022/02/19 02:52:36;;;;;;;3.05;0.60;;;7.80;65.50;;;;;;5011872;28;20413;-66
2022/02/19 02:55:07;;;;;;;2.58;0.60;;;7.80;65.80;;;;;;5013263;28;20055;-66
2022/02/19 02:57:33;;;;;;;2.65;0.70;;;7.70;66.10;;;;;;5016266;28;20497;-66
2022/02/19 03:00:00;;;;;;;3.95;0.50;;;7.70;66.50;;;;;;5012812;28;20560;-66
2022/02/19 03:02:25;;;;;;;2.83;0.65;;;7.70;66.90;;;;;;5014524;28;20558;-66
2022/02/19 03:04:51;;;;;;;4.32;0.60;;;7.70;67.10;;;;;;4999727;28;20037;-66
2022/02/19 03:07:16;;;;;;;5.30;0.75;;;7.60;67.20;;;;;;5012420;28;20033;-66
2022/02/19 03:09:42;;;;;;;3.15;0.63;;;7.60;67.60;;;;;;5010571;28;20628;-65
2022/02/19 03:12:10;;;;;;;5.18;0.70;;;7.60;67.90;;;;;;5012268;28;20029;-66
2022/02/19 03:14:35;;;;;;;5.45;0.85;;;7.60;68.30;;;;;;5010621;28;20041;-66
2022/02/19 03:17:01;;;;;;;2.92;0.57;;;7.60;68.10;;;;;;5014447;28;20034;-66
2022/02/19 03:19:27;;;;;;;2.63;0.60;;;7.60;68.20;;;;;;5011543;28;20038;-66
2022/02/19 03:21:52;;;;;;;3.92;0.55;;;7.60;68.50;;;;;;5013310;28;20026;-66
2022/02/19 03:24:18;;;;;;;4.88;0.82;;;7.60;68.70;;;;;;5013646;28;20069;-66
2022/02/19 03:26:44;;;;;;;5.00;0.95;;;7.60;68.60;;;;;;5010985;28;20130;-67
2022/02/19 03:29:10;;;;;;;4.10;0.70;;;7.50;68.80;;;;;;5012420;28;20268;-66
2022/02/19 03:31:36;;;;;;;3.53;0.80;;;7.50;68.90;;;;;;5010976;28;20046;-66
2022/02/19 03:34:01;;;;;;;5.07;1.10;;;7.60;69.00;;;;;;5014489;28;20153;-66
2022/02/19 03:36:27;;;;;;;5.18;1.00;;;7.60;68.90;;;;;;5013850;28;20038;-67
2022/02/19 03:38:53;;;;;;;2.28;0.68;;;7.60;69.00;;;;;;5011564;28;20038;-66
2022/02/19 03:41:18;;;;;;;3.15;0.70;;;7.50;68.70;;;;;;5014494;28;20581;-66
2022/02/19 03:43:44;;;;;;;4.22;0.57;;;7.50;68.60;;;;;;5013597;28;20053;-66
2022/02/19 03:46:10;;;;;;;3.38;0.77;;;7.60;68.60;;;;;;5013877;28;20034;-65
2022/02/19 03:48:35;;;;;;;5.95;1.13;;;7.50;68.10;;;;;;5011758;28;20044;-67
2022/02/19 03:51:01;;;;;;;5.13;0.80;;;7.60;68.00;;;;;;5011237;28;20050;-67
2022/02/19 03:53:27;;;;;;;3.95;0.98;;;7.60;67.70;;;;;;5012831;28;20038;-66
2022/02/19 03:55:52;;;;;;;7.57;1.15;;;7.60;67.40;;;;;;5010158;28;20034;-67
2022/02/19 03:58:18;;;;;;;4.63;0.80;;;7.60;67.20;;;;;;5017289;28;20038;-66
2022/02/19 04:00:43;;;;;;;5.75;0.90;;;7.60;66.90;;;;;;5009164;28;20056;-66
2022/02/19 04:03:10;;;;;;;3.85;0.68;;;7.60;67.50;;;;;;5011693;28;20397;-67
2022/02/19 04:05:35;;;;;;;4.35;0.70;;;7.50;66.30;;;;;;5012536;28;20030;-66
2022/02/19 04:08:01;;;;;;;7.47;1.05;;;7.60;66.00;;;;;;5016626;28;20536;-66
2022/02/19 04:10:27;;;;;;;2.65;0.80;;;7.60;65.70;;;;;;5009961;28;20030;-66
2022/02/19 04:12:52;;;;;;;5.63;1.05;;;7.60;65.70;;;;;;5009831;28;20125;-66
2022/02/19 04:15:19;;;;;;;5.53;1.17;;;7.50;64.80;;;;;;5005505;28;20030;-66
2022/02/19 04:17:44;;;;;;;5.10;0.90;;;7.60;64.70;;;;;;4990504;28;20152;-66
2022/02/19 04:20:10;;;;;;;6.38;0.80;;;7.60;64.40;;;;;;4992123;28;20156;-66
2022/02/19 04:22:36;;;;;;;5.63;1.02;;;7.60;64.20;;;;;;4990455;28;20049;-67
2022/02/19 04:25:02;;;;;;;4.25;0.98;;;7.50;64.10;;;;;;4991860;28;20030;-67
2022/02/19 04:27:28;;;;;;;7.20;1.08;;;7.50;64.00;;;;;;4993311;28;20649;-66
2022/02/19 04:29:54;;;;;;;8.25;1.00;;;7.60;64.20;;;;;;4992013;28;20139;-66
2022/02/19 04:32:19;;;;;;;5.43;0.82;;;7.50;64.30;;;;;;4992040;28;20049;-66
2022/02/19 04:34:45;;;;;;;5.20;0.70;;;7.50;64.30;;;;;;5004272;28;20028;-65
2022/02/19 04:37:10;;;;;;;3.67;0.70;;;7.50;64.10;;;;;;4992260;28;20118;-66
2022/02/19 04:39:36;;;;;;;7.80;0.80;;;7.50;64.20;;;;;;5000622;28;20557;-66
2022/02/19 04:42:02;;;;;;;6.35;0.82;;;7.50;64.30;;;;;;5010661;28;20579;-66
2022/02/19 04:44:28;;;;;;;4.10;0.65;;;7.50;64.30;;;;;;5009930;28;20043;-66
2022/02/19 04:46:53;;;;;;;6.18;0.95;;;7.50;64.40;;;;;;5009951;28;20683;-66
2022/02/19 04:49:19;;;;;;;5.82;1.10;;;7.50;64.30;;;;;;5011040;28;20108;-66
2022/02/19 04:51:45;;;;;;;3.55;0.73;;;7.50;64.40;;;;;;5012693;28;20084;-66
2022/02/19 04:54:10;;;;;;;7.10;1.00;;;7.50;64.40;;;;;;5011645;28;20744;-66
2022/02/19 04:56:36;;;;;;;3.30;0.68;;;7.50;64.50;;;;;;5011172;28;20066;-67
2022/02/19 04:59:01;;;;;;;4.13;0.70;;;7.50;64.60;;;;;;5010700;28;20042;-66
2022/02/19 05:01:27;;;;;;;5.97;1.00;;;7.50;64.60;;;;;;5012263;28;20072;-66
2022/02/19 05:03:54;;;;;;;5.75;0.82;;;7.50;64.60;;;;;;5008979;28;20065;-66
2022/02/19 05:06:20;;;;;;;4.43;0.60;;;7.50;64.50;;;;;;5012273;28;20092;-66
2022/02/19 05:08:46;;;;;;;5.85;1.00;;;7.50;64.50;;;;;;5008106;28;20046;-65
2022/02/19 05:11:11;;;;;;;4.40;0.90;;;7.50;64.30;;;;;;5012372;28;20111;-66
2022/02/19 05:13:37;;;;;;;3.95;0.70;;;7.50;64.20;;;;;;5011909;28;20440;-67
2022/02/19 05:16:03;;;;;;;9.70;1.10;;;7.50;64.00;;;;;;5011093;28;20038;-65
2022/02/19 05:18:28;;;;;;;4.20;0.60;;;7.50;64.00;;;;;;5008820;28;20030;-67
2022/02/19 05:20:54;;;;;;;7.30;2.45;;;7.50;63.80;;;;;;5009949;28;20321;-66
2022/02/19 05:23:22;;;;;;;5.63;1.00;;;7.50;63.60;;;;;;5011964;28;20553;-66
2022/02/19 05:25:49;;;;;;;3.28;1.00;;;7.40;63.60;;;;;;5010318;28;21575;-66
2022/02/19 05:28:15;;;;;;;4.95;0.85;;;7.40;63.50;;;;;;5009410;28;20501;-66
2022/02/19 05:30:40;;;;;;;6.15;0.90;;;7.40;63.60;;;;;;5009850;28;20033;-66
2022/02/19 05:33:07;;;;;;;13.98;1.23;;;7.40;64.30;;;;;;5012193;28;20041;-66
2022/02/19 05:35:33;;;;;;;6.15;1.08;;;7.40;63.10;;;;;;5012026;28;20448;-66
2022/02/19 05:37:58;;;;;;;5.18;0.82;;;7.40;62.90;;;;;;5010531;28;20041;-67
2022/02/19 05:40:24;;;;;;;6.05;1.23;;;7.40;62.90;;;;;;5009997;28;20037;-66
2022/02/19 05:42:50;;;;;;;6.10;1.23;;;7.40;63.00;;;;;;5009933;28;20042;-66
2022/02/19 05:45:15;;;;;;;35.22;15.65;;;7.40;63.10;;;;;;5010615;28;20679;-67
2022/02/19 05:47:41;;;;;;;8.30;2.30;;;7.40;63.10;;;;;;5013374;28;20033;-65
2022/02/19 05:50:07;;;;;;;8.50;1.25;;;7.40;62.70;;;;;;5008624;28;20044;-65
2022/02/19 05:52:33;;;;;;;6.03;1.23;;;7.40;62.70;;;;;;5012037;28;20057;-67
2022/02/19 05:54:59;;;;;;;7.95;1.30;;;7.40;62.60;;;;;;5009877;28;20073;-66
2022/02/19 05:57:24;;;;;;;9.77;2.05;;;7.40;62.60;;;;;;5010947;28;20065;-66
2022/02/19 05:59:51;;;;;;;11.10;5.15;;;7.40;62.00;;;;;;5008421;28;20042;-66
2022/02/19 06:02:17;;;;;;;5.63;1.15;;;7.40;61.80;;;;;;5013476;28;20121;-66
2022/02/19 06:04:43;;;;;;;4.40;1.13;;;7.40;62.00;;;;;;5016551;28;20049;-66
2022/02/19 06:07:09;;;;;;;6.28;1.05;;;7.40;61.90;;;;;;5010450;28;20079;-66
2022/02/19 06:09:35;;;;;;;7.70;1.20;;;7.30;61.70;;;;;;5009298;28;20034;-66
2022/02/19 06:12:00;;;;;;;6.05;1.65;;;7.30;61.90;;;;;;5008168;28;20065;-67
2022/02/19 06:14:26;;;;;;;6.50;1.58;;;7.30;62.00;;;;;;5011007;28;20098;-66
2022/02/19 06:16:52;;;;;;;6.07;1.63;;;7.30;62.00;;;;;;5011009;28;20455;-66
2022/02/19 06:19:18;;;;;;;7.18;0.93;;;7.30;62.00;;;;;;5011207;28;20034;-67
2022/02/19 06:21:44;;;;;;;8.85;1.50;;;7.20;61.80;;;;;;5009477;28;20414;-65
2022/02/19 06:24:09;;;;;;;8.15;1.25;;;7.20;61.90;;;;;;5010524;28;20542;-65
2022/02/19 06:26:35;;;;;;;3.97;1.15;;;7.20;60.50;;;;;;5010619;28;20042;-66
2022/02/19 06:29:01;;;;;;;7.70;1.20;;;7.10;60.50;;;;;;5008879;28;20107;-66
2022/02/19 06:31:27;;;;;;;7.65;1.13;;;7.20;59.10;;;;;;5008818;28;20026;-65
2022/02/19 06:33:53;;;;;;;7.57;1.83;;;7.10;59.00;;;;;;5009930;28;20420;-66
2022/02/19 06:36:19;;;;;;;8.48;1.70;;;7.10;59.10;;;;;;5018057;28;20026;-66
2022/02/19 06:38:46;;;;;;;6.32;1.35;;;7.00;59.60;;;;;;5009862;28;20425;-66
2022/02/19 06:41:12;;;;;;;5.18;1.40;;;7.00;59.20;;;;;;5009105;28;20038;-65
2022/02/19 06:43:39;;;;;;;6.30;1.23;;;7.00;59.40;;;;;;5011512;28;20076;-66
2022/02/19 06:46:05;;;;;;;4.85;1.10;;;7.00;59.30;;;;;;5008207;28;20053;-67
2022/02/19 06:48:31;;;;;;;4.38;0.90;;;7.00;59.80;;;;;;5012559;28;20496;-66
2022/02/19 06:50:58;;;;;;;7.00;1.25;;;7.00;59.70;;;;;;5009910;28;20046;-66
2022/02/19 06:53:25;;;;;;;8.63;1.20;;;6.90;59.40;;;;;;5012120;28;20034;-66
2022/02/19 06:55:50;;;;;;;4.80;1.10;;;6.90;59.20;;;;;;5009033;28;20459;-66
2022/02/19 06:58:16;;;;;;;6.30;1.15;;;6.90;59.90;;;;;;5011426;28;20037;-66
2022/02/19 07:00:41;;;;;;;9.80;1.30;;;6.90;59.20;;;;;;5007572;28;20069;-67
2022/02/19 07:03:07;;;;;;;5.82;1.25;;;6.90;59.70;;;;;;5011672;28;20519;-66
2022/02/19 07:05:33;;;;;;;5.40;1.17;;;6.90;58.90;;;;;;5015951;28;20033;-66
2022/02/19 07:07:58;;;;;;;10.43;1.48;;;6.90;58.70;;;;;;5010191;28;20038;-66
2022/02/19 07:10:24;;;;;;;8.05;1.30;;;6.90;58.90;;;;;;5009755;28;20038;-66
2022/02/19 07:12:50;;;;;;;8.43;1.20;;;6.90;58.80;;;;;;5008155;28;20045;-66
2022/02/19 07:15:20;;;;;;;6.68;1.15;;;6.90;58.70;;;;;;5010538;28;20037;-66
2022/02/19 07:17:50;;;;;;;7.80;1.55;;;6.90;58.90;;;;;;5013659;28;20038;-67
2022/02/19 07:20:16;;;;;;;10.80;1.48;;;6.90;58.80;;;;;;5010282;28;20055;-66
2022/02/19 07:22:42;;;;;;;8.65;1.35;;;6.90;58.50;;;;;;5017086;28;20029;-66
2022/02/19 07:25:08;;;;;;;9.48;1.85;;;6.90;58.50;;;;;;5017505;28;20531;-66
2022/02/19 07:27:45;;;;;;;7.22;1.60;;;6.90;58.70;;;;;;5011721;28;20129;-65
2022/02/19 07:30:15;;;;;;;7.03;1.42;;;6.90;58.30;;;;;;5010791;28;20580;-66
2022/02/19 07:32:41;;;;;;;10.32;1.58;;;6.90;58.40;;;;;;5011245;28;20053;-66
2022/02/19 07:35:08;;;;;;;11.35;2.33;;;6.90;58.70;;;;;;5012366;28;20425;-66
2022/02/19 07:37:38;;;;;;;8.45;2.28;;;6.90;58.60;;;;;;5008984;28;20032;-66
2022/02/19 07:40:06;;;;;;;10.52;3.45;;;6.90;58.30;;;;;;5015790;28;20042;-64
2022/02/19 07:42:32;;;;;;;6.95;2.88;;;6.90;58.50;;;;;;5014900;28;20051;-66
2022/02/19 07:44:58;;;;;;;11.30;3.55;;;6.90;58.80;;;;;;5017213;28;20038;-67
2022/02/19 07:47:25;;;;;;;8.82;2.20;;;6.90;58.90;;;;;;5013789;28;20030;-66
2022/02/19 07:58:19;;;;;;;9.43;1.88;;;7.10;59.00;;;;;;5017129;28;20102;-67
2022/02/19 08:01:05;;;;;;;5.28;1.00;;;7.10;58.50;;;;;;5003335;28;20038;-65
2022/02/19 08:03:32;;;;;;;9.50;1.40;;;7.20;58.50;;;;;;5006720;28;20048;-66
2022/02/19 08:05:58;;;;;;;6.63;1.13;;;7.10;58.80;;;;;;5005787;28;20053;-66
2022/02/19 08:08:25;;;;;;;8.57;1.55;;;7.20;58.90;;;;;;5006797;28;20038;-68
2022/02/19 08:10:51;;;;;;;5.50;0.90;;;7.20;58.90;;;;;;5007411;28;20100;-66
2022/02/19 08:13:18;;;;;;;9.20;1.60;;;7.30;59.10;;;;;;5014409;28;20037;-67
2022/02/19 08:15:50;;;;;;;8.57;1.45;;;7.30;59.10;;;;;;5009030;28;20037;-67
2022/02/19 08:18:16;;;;;;;6.97;1.52;;;7.30;59.00;;;;;;5013119;28;20544;-68
2022/02/19 08:20:44;;;;;;;10.25;1.60;;;7.40;59.00;;;;;;5009769;28;20069;-67
2022/02/19 08:23:11;;;;;;;5.85;1.55;;;7.40;59.20;;;;;;5011064;28;20502;-67
2022/02/19 08:25:38;;;;;;;7.78;1.98;;;7.40;59.40;;;;;;5012230;28;20052;-67
2022/02/19 08:28:05;;;;;;;6.75;1.83;;;7.50;59.50;;;;;;5011630;28;20033;-67
2022/02/19 08:30:33;;;;;;;5.10;1.60;;;7.50;59.60;;;;;;5011468;28;20030;-68
2022/02/19 08:32:59;;;;;;;9.27;1.90;;;7.50;59.60;;;;;;5010327;28;20053;-67
2022/02/19 08:35:24;;;;;;;9.55;2.17;;;7.60;59.90;;;;;;5011493;28;20041;-67
2022/02/19 08:37:50;;;;;;;9.00;1.70;;;7.60;59.80;;;;;;5009869;28;20190;-66
2022/02/19 08:40:16;;;;;;;8.25;1.30;;;7.60;59.80;;;;;;5008594;28;20081;-66
2022/02/19 08:42:42;;;;;;;10.25;1.70;;;7.70;60.00;;;;;;5010145;28;20034;-66
2022/02/19 08:45:09;;;;;;;11.30;1.10;;;7.70;60.00;;;;;;5010112;28;20037;-67
2022/02/19 08:47:35;;;;;;;9.20;1.50;;;7.80;60.00;;;;;;5012700;28;20030;-67
2022/02/19 08:50:05;;;;;;;8.43;1.70;;;7.80;59.70;;;;;;5007585;28;20026;-66
2022/02/19 08:52:31;;;;;;;8.80;1.38;;;7.90;59.90;;;;;;5009542;28;20519;-66
2022/02/19 08:54:57;;;;;;;7.57;1.55;;;7.90;59.90;;;;;;5010920;28;20069;-67
2022/02/19 08:57:23;;;;;;;7.25;1.45;;;8.00;59.90;;;;;;5011674;28;20164;-67
2022/02/19 08:59:49;;;;;;;4.65;1.60;;;8.00;59.70;;;;;;5008178;28;20124;-67
2022/02/19 09:02:14;;;;;;;8.27;1.30;;;8.10;59.10;;;;;;5010922;28;20056;-67
2022/02/19 09:04:40;;;;;;;7.78;1.55;;;8.10;58.60;;;;;;5007487;28;20037;-66
2022/02/19 09:07:06;;;;;;;7.63;1.25;;;8.10;58.80;;;;;;5010515;28;20496;-67
2022/02/19 09:09:36;;;;;;;6.25;1.30;;;8.20;58.50;;;;;;5009119;28;20040;-67
2022/02/19 09:12:04;;;;;;;6.18;1.15;;;8.20;58.60;;;;;;5007161;28;20033;-66
2022/02/19 09:14:30;;;;;;;7.80;1.52;;;8.20;58.00;;;;;;5011006;28;20029;-67
2022/02/19 09:16:55;;;;;;;5.75;1.30;;;8.30;58.10;;;;;;5011543;28;20049;-67
2022/02/19 09:19:21;;;;;;;6.05;1.50;;;8.40;57.60;;;;;;5010821;28;20044;-66
2022/02/19 09:21:46;;;;;;;10.63;1.73;;;8.40;58.00;;;;;;5011834;28;20073;-67
2022/02/19 09:24:12;;;;;;;5.10;1.15;;;8.40;57.50;;;;;;5009984;28;20099;-66
2022/02/19 09:26:38;;;;;;;7.90;1.48;;;8.40;56.80;;;;;;5008310;28;20071;-67
2022/02/19 09:29:03;;;;;;;5.03;1.35;;;8.50;57.10;;;;;;5010184;28;20040;-67
2022/02/19 09:31:29;;;;;;;6.72;1.23;;;8.50;57.10;;;;;;5010946;28;20033;-67
2022/02/19 09:33:55;;;;;;;12.40;1.35;;;8.60;56.60;;;;;;5009891;28;20114;-67
2022/02/19 09:36:20;;;;;;;5.57;0.88;;;8.60;55.10;;;;;;5009009;28;20034;-67
2022/02/19 09:38:48;;;;;;;4.05;1.08;;;8.60;53.10;;;;;;5008165;28;20033;-66
2022/02/19 09:41:15;;;;;;;6.20;1.10;;;8.60;53.40;;;;;;5008502;28;20111;-66
2022/02/19 09:43:41;;;;;;;4.20;1.00;;;8.50;54.10;;;;;;5009240;28;20036;-65
2022/02/19 09:46:08;;;;;;;7.40;1.13;;;8.50;54.60;;;;;;5009917;28;20045;-66
2022/02/19 09:48:34;;;;;;;5.55;1.23;;;8.40;53.10;;;;;;5011876;28;20061;-66
2022/02/19 09:51:00;;;;;;;6.05;1.17;;;8.40;53.30;;;;;;5008026;28;22377;-66
2022/02/19 09:53:28;;;;;;;8.32;1.15;;;8.40;53.20;;;;;;5014744;28;20029;-66
2022/02/19 09:55:55;;;;;;;3.13;0.88;;;8.40;53.00;;;;;;5009062;28;20030;-66
2022/02/19 09:58:22;;;;;;;7.38;1.20;;;8.40;53.30;;;;;;5011999;28;20025;-66
2022/02/19 10:00:48;;;;;;;6.68;1.30;;;8.40;53.70;;;;;;5004231;28;20064;-66
2022/02/19 10:03:23;;;;;;;4.75;1.15;;;8.40;53.40;;;;;;5016278;28;20042;-66
2022/02/19 10:05:53;;;;;;;8.00;1.70;;;8.40;53.00;;;;;;5013892;28;20033;-66
2022/02/19 10:08:19;;;;;;;6.70;1.27;;;8.40;52.90;;;;;;5020297;28;20451;-66
2022/02/19 10:10:48;;;;;;;6.00;1.35;;;8.40;53.30;;;;;;5011673;28;20558;-67
2022/02/19 10:13:27;;;;;;;3.40;1.00;;;8.40;53.50;;;;;;5008281;28;20052;-66
2022/02/19 10:15:53;;;;;;;5.95;1.10;;;8.40;53.30;;;;;;5011418;28;20029;-67
2022/02/19 10:18:22;;;;;;;4.97;1.17;;;8.40;54.10;;;;;;5011090;28;20040;-66
2022/02/19 10:20:49;;;;;;;9.68;1.48;;;8.50;53.30;;;;;;5006963;28;20132;-67
2022/02/19 10:23:15;;;;;;;6.07;1.10;;;8.50;53.50;;;;;;5010237;28;20467;-67
2022/02/19 10:25:40;;;;;;;6.03;1.20;;;8.50;53.50;;;;;;5013896;28;20067;-66
2022/02/19 10:28:10;;;;;;;6.13;0.95;;;8.60;53.80;;;;;;5011745;28;20046;-66
2022/02/19 10:30:36;;;;;;;4.97;1.10;;;8.70;53.40;;;;;;5012096;28;20064;-66
2022/02/19 10:33:07;;;;;;;7.22;1.30;;;8.70;52.60;;;;;;5007835;28;20127;-66
2022/02/19 10:35:41;;;;;;;6.00;1.05;;;8.80;52.30;;;;;;5010880;28;20037;-67
2022/02/19 10:38:14;;;;;;;4.68;0.98;;;8.90;51.80;;;;;;5010733;28;20042;-66
2022/02/19 10:40:46;;;;;;;8.43;0.98;;;8.90;51.80;;;;;;5005902;28;20097;-66
2022/02/19 10:43:29;;;;;;;4.53;1.00;;;8.90;51.90;;;;;;5008791;28;20037;-66
2022/02/19 10:45:59;;;;;;;3.70;1.08;;;9.00;50.40;;;;;;5014070;28;20029;-66
2022/02/19 10:48:26;;;;;;;6.20;1.20;;;9.00;50.60;;;;;;5012532;28;20101;-67
2022/02/19 10:51:05;;;;;;;3.65;0.85;;;9.10;51.00;;;;;;5009632;28;20915;-66
2022/02/19 10:53:31;;;;;;;5.32;1.17;;;9.00;50.60;;;;;;5014177;28;20136;-67
2022/02/19 10:55:57;;;;;;;7.43;1.48;;;9.10;50.70;;;;;;5008428;28;20076;-67
2022/02/19 10:58:23;;;;;;;3.30;0.85;;;9.10;51.70;;;;;;5016332;28;20034;-67
2022/02/19 11:00:49;;;;;;;7.32;1.35;;;9.20;52.00;;;;;;5013398;28;20390;-67
2022/02/19 11:03:16;;;;;;;3.03;0.90;;;9.30;52.00;;;;;;5015320;28;20379;-68
2022/02/19 11:05:43;;;;;;;6.25;0.98;;;9.40;52.10;;;;;;5016552;28;20466;-66
2022/02/19 11:08:09;;;;;;;3.80;1.02;;;9.50;52.10;;;;;;5014130;28;20465;-66
2022/02/19 11:10:35;;;;;;;2.88;0.82;;;9.60;51.70;;;;;;5008267;28;20033;-66
2022/02/19 11:13:02;;;;;;;6.47;1.20;;;9.70;52.30;;;;;;5014607;28;20523;-67
2022/02/19 11:15:28;;;;;;;2.25;0.60;;;9.80;51.40;;;;;;5016823;28;20044;-67
2022/02/19 11:17:55;;;;;;;6.03;0.90;;;9.90;52.10;;;;;;5016411;28;20034;-67
2022/02/19 11:20:24;;;;;;;4.55;0.90;;;10.00;51.80;;;;;;5017831;28;20038;-67
2022/02/19 11:22:53;;;;;;;5.45;0.80;;;10.10;51.00;;;;;;5016615;28;20091;-67
2022/02/19 11:25:21;;;;;;;2.38;0.70;;;10.20;51.00;;;;;;5015780;28;20484;-67
2022/02/19 11:27:57;;;;;;;3.55;0.80;;;10.40;50.80;;;;;;5016578;28;20040;-67
2022/02/19 11:30:26;;;;;;;2.65;0.70;;;10.40;49.70;;;;;;5017132;28;20026;-68
2022/02/19 11:32:54;;;;;;;4.18;0.73;;;10.50;50.00;;;;;;5014315;28;20030;-67
2022/02/19 11:35:35;;;;;;;3.88;0.80;;;10.60;50.00;;;;;;5017735;28;20085;-68
2022/02/19 11:38:02;;;;;;;4.43;0.85;;;10.60;49.30;;;;;;5015005;28;20030;-66
2022/02/19 11:40:43;;;;;;;3.92;0.50;;;10.70;49.50;;;;;;5017052;28;20492;-68
2022/02/19 11:43:32;;;;;;;7.97;0.70;;;10.80;49.00;;;;;;5012832;28;20129;-68
2022/02/19 11:46:00;;;;;;;6.05;1.23;;;10.80;48.60;;;;;;5013003;28;20033;-67
2022/02/19 11:48:28;;;;;;;3.35;1.00;;;10.90;48.80;;;;;;5014727;28;20116;-67
2022/02/19 11:51:16;;;;;;;3.90;1.17;;;10.90;49.20;;;;;;5016666;28;20117;-68
2022/02/19 11:53:43;;;;;;;5.22;1.10;;;10.90;48.00;;;;;;5014343;28;20062;-68
2022/02/19 11:56:10;;;;;;;5.80;1.08;;;10.90;47.70;;;;;;5014767;28;20501;-67
2022/02/19 11:58:52;;;;;;;4.25;0.95;;;10.90;47.20;;;;;;5015261;28;20060;-67
2022/02/19 12:01:18;;;;;;;4.07;1.27;;;10.80;45.70;;;;;;5014234;28;20080;-67
2022/02/19 12:03:43;;;;;;;3.20;0.88;;;10.60;47.00;;;;;;5015182;28;20061;-67
2022/02/19 12:06:25;;;;;;;4.30;0.70;;;10.50;47.20;;;;;;5011779;28;20034;-68
2022/02/19 12:08:53;;;;;;;3.13;0.82;;;10.40;46.70;;;;;;5012352;28;20124;-67
2022/02/19 12:11:23;;;;;;;6.03;1.05;;;10.30;47.40;;;;;;5016915;28;20137;-66
2022/02/19 12:13:52;;;;;;;4.65;0.93;;;10.10;47.40;;;;;;5017379;28;20152;-67
2022/02/19 12:16:39;;;;;;;5.40;0.80;;;10.10;47.60;;;;;;5016495;28;20114;-67
2022/02/19 12:19:10;;;;;;;2.33;1.10;;;10.00;47.30;;;;;;5017526;28;20401;-67
2022/02/19 12:21:42;;;;;;;3.42;0.90;;;9.90;47.90;;;;;;5017611;28;20553;-67
2022/02/19 12:24:19;;;;;;;5.03;1.10;;;9.80;47.30;;;;;;5016251;28;20061;-67
2022/02/19 12:27:07;;;;;;;4.75;0.98;;;9.80;47.80;;;;;;5014119;28;20037;-67
2022/02/19 12:29:41;;;;;;;4.20;0.98;;;9.70;47.40;;;;;;5013164;28;20546;-66
2022/02/19 12:32:07;;;;;;;5.38;0.70;;;9.60;47.60;;;;;;5017073;28;20080;-65
2022/02/19 12:34:40;;;;;;;2.75;0.73;;;9.70;48.60;;;;;;5015525;28;20037;-67
2022/02/19 12:37:12;;;;;;;3.85;0.90;;;9.60;47.70;;;;;;5015705;28;20049;-67
2022/02/19 12:39:58;;;;;;;2.42;0.80;;;9.60;47.60;;;;;;5016412;28;20041;-68
2022/02/19 12:42:26;;;;;;;2.78;0.80;;;9.60;47.30;;;;;;5016501;28;20038;-66
2022/02/19 12:45:06;;;;;;;3.15;0.75;;;9.60;47.50;;;;;;5017840;28;20042;-67
2022/02/19 12:47:34;;;;;;;4.32;0.85;;;9.60;47.30;;;;;;5014297;28;20030;-66
2022/02/19 12:49:59;;;;;;;2.97;0.80;;;9.60;47.50;;;;;;5016089;28;20037;-67
2022/02/19 12:52:26;;;;;;;1.40;0.70;;;9.60;47.40;;;;;;5014609;28;20029;-67
2022/02/19 12:54:51;;;;;;;2.63;0.88;;;9.60;48.30;;;;;;5015324;28;20077;-67
2022/02/19 12:57:20;;;;;;;5.43;0.82;;;9.70;48.30;;;;;;5018732;28;20550;-67
2022/02/19 12:59:47;;;;;;;3.70;0.80;;;9.70;48.50;;;;;;5012643;28;20045;-66
2022/02/19 13:02:18;;;;;;;6.32;1.17;;;9.70;47.00;;;;;;5014337;28;20056;-67
2022/02/19 13:04:45;;;;;;;3.70;0.65;;;9.70;47.50;;;;;;5016490;28;20051;-67